Time;durP1;ratioP1;P1;durP2;ratioP2;P2;SDS_P1;SDS_P2;PMS_P1;PMS_P2;Temp;Humidity;BMP_temperature;BMP_pressure;BME280_temperature;BME280_humidity;BME280_pressure;Samples;Min_cycle;Max_cycle;Signal;HPM_P1;HPM_P2
2022/11/15 00:00:46;;;;;;;4.80;1.00;;;25.40;54.80;;;;;;4115055;28;20070;-45
2022/11/15 00:03:08;;;;;;;3.17;1.00;;;25.40;54.90;;;;;;4123915;28;20035;-45
2022/11/15 00:05:36;;;;;;;5.20;0.70;;;25.40;54.90;;;;;;4126633;28;20069;-52
2022/11/15 00:07:58;;;;;;;2.60;0.73;;;25.40;55.00;;;;;;4129841;28;20034;-49
2022/11/15 00:10:21;;;;;;;2.08;0.73;;;25.40;54.90;;;;;;4128131;28;20042;-45
2022/11/15 00:12:43;;;;;;;2.53;0.50;;;25.40;54.80;;;;;;4129244;28;20571;-46
2022/11/15 00:15:06;;;;;;;3.05;0.60;;;25.40;54.80;;;;;;4123596;28;20450;-44
2022/11/15 00:17:29;;;;;;;2.25;0.40;;;25.50;54.90;;;;;;4124204;28;20045;-46
2022/11/15 00:19:52;;;;;;;1.95;0.80;;;25.40;54.80;;;;;;4127222;28;20365;-45
2022/11/15 00:22:14;;;;;;;1.55;0.40;;;25.50;54.90;;;;;;4128804;28;20049;-44
2022/11/15 00:24:37;;;;;;;1.17;0.50;;;25.50;54.90;;;;;;4133074;28;20044;-47
2022/11/15 00:26:59;;;;;;;1.70;0.70;;;25.60;55.30;;;;;;4127183;28;20115;-43
2022/11/15 00:29:22;;;;;;;4.90;1.05;;;25.60;55.20;;;;;;4124567;28;20096;-43
2022/11/15 00:31:45;;;;;;;9.65;0.75;;;25.60;55.10;;;;;;4126601;28;20032;-43
2022/11/15 00:34:07;;;;;;;3.67;0.70;;;25.70;54.90;;;;;;4122626;28;20046;-46
2022/11/15 00:36:32;;;;;;;3.42;0.63;;;25.70;54.90;;;;;;4124378;28;20030;-47
2022/11/15 00:38:55;;;;;;;3.47;0.82;;;25.70;55.00;;;;;;4127993;28;20034;-47
2022/11/15 00:41:17;;;;;;;2.60;0.68;;;25.60;54.90;;;;;;4123905;28;20048;-45
2022/11/15 00:43:43;;;;;;;3.78;0.95;;;25.70;55.00;;;;;;4124003;28;20449;-41
2022/11/15 00:46:05;;;;;;;3.90;0.90;;;25.70;55.00;;;;;;4124198;28;20465;-44
2022/11/15 00:48:28;;;;;;;3.20;0.82;;;25.70;54.90;;;;;;4125669;28;20050;-43
2022/11/15 00:50:51;;;;;;;2.23;0.60;;;25.70;54.90;;;;;;4125433;28;20488;-45
2022/11/15 00:53:13;;;;;;;2.00;0.60;;;25.70;54.90;;;;;;4126712;28;20045;-44
2022/11/15 00:55:36;;;;;;;3.97;0.85;;;25.70;55.00;;;;;;4117066;28;20047;-50
2022/11/15 00:57:58;;;;;;;4.50;1.15;;;25.70;55.00;;;;;;4128611;28;20030;-44
2022/11/15 01:00:21;;;;;;;4.00;0.80;;;25.70;54.90;;;;;;4127936;28;20042;-49
2022/11/15 01:02:43;;;;;;;4.57;0.95;;;25.70;54.90;;;;;;4134224;28;20041;-45
2022/11/15 01:05:07;;;;;;;4.47;0.88;;;25.70;54.70;;;;;;4118647;28;20056;-47
2022/11/15 01:07:29;;;;;;;1.10;0.40;;;25.70;54.70;;;;;;4131486;28;20122;-48
2022/11/15 01:09:52;;;;;;;0.85;0.45;;;25.80;54.70;;;;;;4132566;28;20595;-47
2022/11/15 01:12:14;;;;;;;1.58;0.52;;;25.80;54.60;;;;;;4129664;28;20029;-46
2022/11/15 01:14:37;;;;;;;2.88;0.63;;;25.80;54.60;;;;;;4129134;28;20041;-46
2022/11/15 01:16:59;;;;;;;4.18;0.80;;;25.80;54.60;;;;;;4129433;28;20041;-45
2022/11/15 01:19:22;;;;;;;3.33;0.82;;;25.80;54.50;;;;;;4125947;28;20540;-49
2022/11/15 01:21:44;;;;;;;1.73;0.85;;;25.80;54.60;;;;;;4130175;28;20639;-44
2022/11/15 01:24:08;;;;;;;1.75;0.80;;;25.80;54.60;;;;;;4124295;28;20470;-51
2022/11/15 01:26:30;;;;;;;2.53;0.80;;;25.80;54.70;;;;;;4125261;28;20121;-48
2022/11/15 01:28:53;;;;;;;3.97;0.80;;;25.80;54.80;;;;;;4121154;28;20054;-48
2022/11/15 01:31:19;;;;;;;1.40;0.50;;;25.80;54.90;;;;;;4124570;28;20034;-52
2022/11/15 01:33:42;;;;;;;10.60;0.60;;;25.90;54.90;;;;;;4115459;28;20034;-52
2022/11/15 01:36:06;;;;;;;3.22;0.70;;;25.90;54.90;;;;;;4125352;28;20117;-48
2022/11/15 01:38:28;;;;;;;;;;;25.90;54.90;;;;;;4114709;28;20031;-45
2022/11/15 01:40:50;;;;;;;3.95;0.93;;;25.90;54.90;;;;;;4121747;28;19918;-45
2022/11/15 01:43:34;;;;;;;1.60;0.63;;;25.90;54.90;;;;;;4125338;28;20418;-45
2022/11/15 01:46:19;;;;;;;5.45;1.30;;;26.00;55.10;;;;;;4130068;28;20044;-44
2022/11/15 01:48:42;;;;;;;16.67;1.20;;;26.00;55.30;;;;;;4127690;28;20093;-45
2022/11/15 01:51:10;;;;;;;4.95;0.93;;;26.10;55.30;;;;;;4128667;28;20127;-45
2022/11/15 01:53:34;;;;;;;2.47;0.82;;;26.10;55.30;;;;;;4125744;28;20041;-46
2022/11/15 01:55:57;;;;;;;2.00;0.73;;;26.20;55.40;;;;;;4126208;28;20064;-50
2022/11/15 01:58:20;;;;;;;3.80;0.95;;;26.20;55.40;;;;;;4134275;28;20052;-51
2022/11/15 02:00:42;;;;;;;1.02;0.43;;;26.20;55.40;;;;;;4125829;28;20034;-49
2022/11/15 02:03:05;;;;;;;3.13;0.75;;;26.20;55.30;;;;;;4128281;28;20552;-47
2022/11/15 02:05:27;;;;;;;1.15;0.57;;;26.20;55.30;;;;;;4129753;28;20034;-48
2022/11/15 02:07:50;;;;;;;4.95;0.70;;;26.20;55.30;;;;;;4133177;28;20480;-50
2022/11/15 02:10:19;;;;;;;1.77;0.40;;;26.30;55.40;;;;;;4131070;28;20050;-47
2022/11/15 02:12:42;;;;;;;5.70;1.00;;;26.30;55.40;;;;;;4133778;28;20518;-46
2022/11/15 02:15:07;;;;;;;2.00;0.55;;;26.30;55.40;;;;;;4130621;28;20038;-48
2022/11/15 02:17:42;;;;;;;2.35;0.80;;;26.30;55.30;;;;;;4134015;28;20117;-47
2022/11/15 02:20:16;;;;;;;0.75;0.40;;;26.30;55.30;;;;;;4117348;28;20494;-44
2022/11/15 02:22:45;;;;;;;2.53;0.93;;;26.40;55.30;;;;;;4127529;28;20598;-48
2022/11/15 02:25:48;;;;;;;2.47;0.90;;;26.40;55.10;;;;;;4125480;28;20045;-46
2022/11/15 02:28:38;;;;;;;2.58;1.30;;;26.40;54.50;;;;;;4102179;28;20513;-48
2022/11/15 02:31:14;;;;;;;4.03;1.30;;;26.30;53.20;;;;;;4129331;28;20497;-46
2022/11/15 02:33:46;;;;;;;3.03;1.10;;;26.20;52.80;;;;;;4122462;28;20275;-41
2022/11/15 02:36:34;;;;;;;3.13;1.20;;;26.20;52.80;;;;;;4122060;28;20041;-42
2022/11/15 02:39:23;;;;;;;2.92;1.20;;;26.20;52.70;;;;;;4123348;28;20048;-43
2022/11/15 02:45:05;;;;;;;3.55;1.23;;;26.20;53.40;;;;;;4123937;28;20026;-45
2022/11/15 02:47:31;;;;;;;5.13;1.48;;;26.20;53.90;;;;;;4124193;28;20469;-43
2022/11/15 02:49:57;;;;;;;5.22;1.33;;;26.20;54.40;;;;;;4129344;28;20124;-45
2022/11/15 02:52:23;;;;;;;3.53;0.93;;;26.10;54.70;;;;;;4125648;28;20474;-44
2022/11/15 02:54:58;;;;;;;4.30;1.02;;;26.10;55.00;;;;;;4120112;28;20041;-48
2022/11/15 02:57:44;;;;;;;4.22;1.17;;;26.10;55.30;;;;;;4127300;28;20581;-44
2022/11/15 03:00:10;;;;;;;4.78;1.25;;;26.00;55.40;;;;;;4125117;28;20219;-43
2022/11/15 03:03:07;;;;;;;1.27;0.70;;;26.00;55.50;;;;;;4127740;28;20045;-44
2022/11/15 03:05:44;;;;;;;1.77;0.60;;;26.10;55.60;;;;;;4127100;28;20068;-43
2022/11/15 03:08:34;;;;;;;2.05;0.52;;;26.10;55.60;;;;;;4128792;28;20049;-43
2022/11/15 03:11:15;;;;;;;1.33;0.52;;;26.10;55.60;;;;;;4132939;28;20054;-44
2022/11/15 03:13:56;;;;;;;2.60;0.70;;;26.20;55.80;;;;;;4124222;28;20466;-43
2022/11/15 03:16:43;;;;;;;2.58;0.65;;;26.20;55.90;;;;;;4123750;28;20500;-42
2022/11/15 03:19:19;;;;;;;1.05;0.40;;;26.20;56.00;;;;;;4128570;28;20113;-44
2022/11/15 03:21:43;;;;;;;2.22;0.70;;;26.30;56.10;;;;;;4131779;28;20498;-42
2022/11/15 03:24:08;;;;;;;1.65;0.52;;;26.40;56.30;;;;;;4127404;28;20668;-45
2022/11/15 03:26:32;;;;;;;3.80;0.80;;;26.50;56.20;;;;;;4133031;28;20841;-45
2022/11/15 03:29:10;;;;;;;1.92;0.45;;;26.50;56.00;;;;;;4132791;28;20064;-42
2022/11/15 03:31:47;;;;;;;4.63;0.95;;;26.60;55.90;;;;;;4129859;28;20477;-42
2022/11/15 03:34:15;;;;;;;0.93;0.57;;;26.70;55.90;;;;;;4125481;28;20394;-43
2022/11/15 03:36:39;;;;;;;3.95;0.60;;;26.70;55.70;;;;;;4121209;28;20494;-45
2022/11/15 03:39:05;;;;;;;1.25;0.75;;;26.80;55.70;;;;;;4124671;28;20121;-42
2022/11/15 03:41:36;;;;;;;2.90;0.50;;;26.80;55.70;;;;;;4125763;28;20537;-47
2022/11/15 03:44:41;;;;;;;2.20;0.80;;;26.80;55.70;;;;;;4122503;28;20389;-43
2022/11/15 03:47:23;;;;;;;;;;;26.80;55.20;;;;;;4116888;28;20092;-47
2022/11/15 03:49:53;;;;;;;4.88;1.05;;;26.80;54.30;;;;;;4125147;28;20431;-43
2022/11/15 03:52:19;;;;;;;5.35;1.05;;;26.80;54.10;;;;;;4132523;28;20038;-42
2022/11/15 03:55:01;;;;;;;1.35;0.70;;;26.80;54.10;;;;;;4128864;28;20045;-45
2022/11/15 03:57:23;;;;;;;6.03;0.98;;;26.90;54.30;;;;;;4120682;28;20022;-43
2022/11/15 03:59:46;;;;;;;1.25;0.52;;;26.80;54.40;;;;;;4124922;28;20492;-42
2022/11/15 04:02:09;;;;;;;1.80;0.70;;;26.90;54.60;;;;;;4123067;28;20033;-43
2022/11/15 04:04:31;;;;;;;2.47;0.80;;;26.90;54.60;;;;;;4122575;28;20042;-43
2022/11/15 04:06:54;;;;;;;9.35;1.20;;;27.00;54.60;;;;;;4127447;28;20418;-40
2022/11/15 04:09:16;;;;;;;2.22;0.73;;;27.00;54.40;;;;;;4125246;28;20138;-44
2022/11/15 04:11:39;;;;;;;2.75;0.73;;;27.10;54.60;;;;;;4132054;28;20037;-43
2022/11/15 04:14:01;;;;;;;3.08;0.70;;;27.10;54.50;;;;;;4125340;28;20032;-42
2022/11/15 04:16:24;;;;;;;2.60;0.80;;;27.10;54.50;;;;;;4132835;28;20112;-46
2022/11/15 04:24:11;;;;;;;2.63;0.57;;;27.20;54.50;;;;;;4129133;28;20345;-43
2022/11/15 04:24:12;;;;;;;1.27;0.77;;;27.30;54.30;;;;;;4130309;28;20120;-46
2022/11/15 04:26:35;;;;;;;2.22;0.80;;;27.40;54.30;;;;;;4124383;28;20046;-42
2022/11/15 04:31:38;;;;;;;1.38;0.50;;;27.50;54.20;;;;;;4129487;28;20279;-43
2022/11/15 04:34:00;;;;;;;2.13;0.75;;;27.60;54.20;;;;;;4127043;28;20042;-49
2022/11/15 04:39:05;;;;;;;3.97;0.70;;;27.70;54.10;;;;;;4128932;28;20068;-43
2022/11/15 04:41:28;;;;;;;1.95;0.50;;;27.80;54.00;;;;;;4126351;28;20065;-45
2022/11/15 04:43:51;;;;;;;3.95;1.02;;;27.90;53.90;;;;;;4126376;28;20464;-46
2022/11/15 04:46:13;;;;;;;2.75;0.93;;;28.00;53.90;;;;;;4130382;28;20046;-43
2022/11/15 04:48:36;;;;;;;3.50;0.77;;;28.10;53.80;;;;;;4134327;28;20052;-46
2022/11/15 04:50:59;;;;;;;1.58;0.75;;;28.10;53.60;;;;;;4131091;28;20113;-46
2022/11/15 04:53:21;;;;;;;1.30;0.60;;;28.20;53.50;;;;;;4133800;28;20045;-46
2022/11/15 04:55:47;;;;;;;2.42;0.68;;;28.20;53.60;;;;;;4126693;28;20041;-46
2022/11/15 04:58:10;;;;;;;2.67;0.80;;;28.20;53.20;;;;;;4124655;28;20365;-49
2022/11/15 05:00:33;;;;;;;2.47;0.93;;;28.20;53.30;;;;;;4123187;28;20575;-46
2022/11/15 05:05:37;;;;;;;2.20;0.55;;;28.00;53.30;;;;;;4130252;28;20679;-51
2022/11/15 05:07:59;;;;;;;1.52;0.70;;;28.10;53.50;;;;;;4125187;28;20397;-45
2022/11/15 05:10:22;;;;;;;5.72;0.80;;;28.00;53.40;;;;;;4128382;28;20554;-47
2022/11/15 05:12:44;;;;;;;1.67;0.52;;;28.00;53.70;;;;;;4127931;28;20096;-49
2022/11/15 05:15:07;;;;;;;1.95;0.60;;;28.00;53.80;;;;;;4126568;28;20120;-57
2022/11/15 05:17:30;;;;;;;1.75;0.82;;;28.00;54.00;;;;;;4129325;28;20057;-53
2022/11/15 05:19:52;;;;;;;7.60;0.75;;;28.00;54.00;;;;;;4132065;28;20045;-56
2022/11/15 05:22:15;;;;;;;4.03;1.00;;;28.00;54.30;;;;;;4133561;28;20405;-57
2022/11/15 05:24:38;;;;;;;2.03;0.85;;;28.00;54.50;;;;;;4132793;28;20092;-53
2022/11/15 05:27:00;;;;;;;2.78;0.88;;;27.90;54.40;;;;;;4130868;28;20417;-56
2022/11/15 05:29:23;;;;;;;4.68;0.80;;;27.90;54.50;;;;;;4128773;28;20085;-56
2022/11/15 05:31:45;;;;;;;1.50;0.57;;;27.90;54.60;;;;;;4126846;28;20030;-54
2022/11/15 05:34:08;;;;;;;1.63;0.65;;;27.90;54.40;;;;;;4130641;28;20414;-56
2022/11/15 05:36:42;;;;;;;3.55;0.73;;;27.90;54.50;;;;;;4131909;28;20047;-55
2022/11/15 05:39:06;;;;;;;4.15;1.13;;;28.00;54.60;;;;;;4129980;28;20038;-59
2022/11/15 05:41:43;;;;;;;1.75;0.70;;;28.00;54.40;;;;;;4126674;28;20038;-54
2022/11/15 05:44:09;;;;;;;2.60;0.70;;;28.00;54.40;;;;;;4129749;28;20037;-58
2022/11/15 05:46:32;;;;;;;2.08;0.80;;;28.00;54.40;;;;;;4129175;28;20052;-57
2022/11/15 05:48:56;;;;;;;1.77;0.88;;;27.90;54.30;;;;;;4129957;28;20046;-58
2022/11/15 05:51:23;;;;;;;2.28;0.70;;;27.90;54.30;;;;;;4129441;28;20044;-55
2022/11/15 05:53:46;;;;;;;1.65;0.90;;;27.90;54.30;;;;;;4129882;28;20197;-55
2022/11/15 05:56:10;;;;;;;2.08;0.95;;;28.00;54.20;;;;;;4126043;28;21159;-55
2022/11/15 05:58:33;;;;;;;2.58;0.95;;;28.00;54.30;;;;;;4130553;28;20045;-56
2022/11/15 06:00:56;;;;;;;1.88;0.80;;;28.00;54.20;;;;;;4128296;28;20116;-59
2022/11/15 06:03:18;;;;;;;2.00;0.60;;;28.10;54.30;;;;;;4132271;28;20073;-56
2022/11/15 06:05:41;;;;;;;3.42;0.82;;;28.00;54.10;;;;;;4130208;28;20065;-57
2022/11/15 06:08:04;;;;;;;1.53;0.63;;;28.00;54.20;;;;;;4130050;28;20221;-58
2022/11/15 06:10:26;;;;;;;1.17;0.70;;;28.00;54.30;;;;;;4128590;28;20422;-58
2022/11/15 06:13:02;;;;;;;2.75;0.80;;;28.00;54.30;;;;;;4128024;28;20200;-57
2022/11/15 06:15:25;;;;;;;2.33;1.10;;;28.00;54.30;;;;;;4114121;28;20042;-55
2022/11/15 06:17:48;;;;;;;3.63;1.20;;;28.00;54.30;;;;;;4130950;28;20034;-57
2022/11/15 06:20:11;;;;;;;4.30;1.13;;;28.00;53.70;;;;;;4127808;28;20378;-59
2022/11/15 06:22:33;;;;;;;1.92;1.10;;;28.00;53.30;;;;;;4129498;28;20517;-51
2022/11/15 06:24:56;;;;;;;2.78;1.20;;;28.00;52.80;;;;;;4126537;28;20068;-57
2022/11/15 06:27:18;;;;;;;3.67;1.42;;;28.00;52.80;;;;;;4128150;28;20125;-58
2022/11/15 06:29:41;;;;;;;5.72;2.40;;;28.00;52.40;;;;;;4131404;28;20042;-58
2022/11/15 06:32:04;;;;;;;6.18;2.60;;;27.90;52.30;;;;;;4130468;28;20607;-58
2022/11/15 06:34:26;;;;;;;6.00;2.60;;;27.90;52.50;;;;;;4123638;28;20069;-55
2022/11/15 06:36:49;;;;;;;8.48;2.88;;;27.90;52.50;;;;;;4124919;28;20034;-57
2022/11/15 06:39:11;;;;;;;7.07;2.92;;;27.90;52.60;;;;;;4119528;28;20034;-53
2022/11/15 06:41:37;;;;;;;5.25;2.80;;;27.90;52.60;;;;;;4130510;28;20490;-58
2022/11/15 06:44:00;;;;;;;6.18;2.70;;;27.90;52.80;;;;;;4125776;28;20041;-58
2022/11/15 06:46:22;;;;;;;4.47;2.20;;;27.80;52.80;;;;;;4126125;28;20074;-57
2022/11/15 06:48:45;;;;;;;4.50;2.17;;;27.80;52.80;;;;;;4122903;28;20474;-58
2022/11/15 06:51:07;;;;;;;7.95;2.65;;;27.80;52.90;;;;;;4128725;28;20469;-55
2022/11/15 06:53:31;;;;;;;5.80;2.15;;;27.80;52.30;;;;;;4122938;28;20803;-57
2022/11/15 06:55:53;;;;;;;6.47;2.28;;;27.70;51.80;;;;;;4130308;28;20069;-56
2022/11/15 06:58:16;;;;;;;6.63;2.45;;;27.70;51.90;;;;;;4130537;28;20026;-57
2022/11/15 07:00:39;;;;;;;6.00;2.40;;;27.60;52.00;;;;;;4129932;28;20148;-58
2022/11/15 07:03:02;;;;;;;6.97;2.08;;;27.60;52.30;;;;;;4122715;28;20292;-57
2022/11/15 07:05:25;;;;;;;6.07;2.35;;;27.50;52.40;;;;;;4126124;28;20042;-58
2022/11/15 07:07:53;;;;;;;4.97;1.55;;;27.40;52.60;;;;;;4129224;28;20097;-57
2022/11/15 07:10:15;;;;;;;7.18;2.05;;;27.40;52.70;;;;;;4118348;28;20050;-57
2022/11/15 07:12:38;;;;;;;3.92;1.85;;;27.30;52.70;;;;;;4122706;28;20028;-56
2022/11/15 07:15:00;;;;;;;5.72;1.95;;;27.30;53.00;;;;;;4122606;28;20517;-58
2022/11/15 07:17:23;;;;;;;7.70;2.60;;;27.20;53.20;;;;;;4120744;28;20089;-57
2022/11/15 07:19:45;;;;;;;5.65;2.22;;;27.20;53.50;;;;;;4127364;28;20044;-58
2022/11/15 07:22:08;;;;;;;5.28;2.10;;;27.20;53.70;;;;;;4109353;28;20636;-58
2022/11/15 07:24:31;;;;;;;5.40;1.80;;;27.20;53.80;;;;;;4101776;28;20046;-55
2022/11/15 07:26:53;;;;;;;5.50;1.90;;;27.10;53.80;;;;;;4114676;28;21132;-57
2022/11/15 07:29:16;;;;;;;5.10;1.83;;;27.10;53.80;;;;;;4120239;28;20171;-56
2022/11/15 07:31:39;;;;;;;6.72;2.05;;;27.00;53.70;;;;;;4125133;28;20523;-57
2022/11/15 07:34:01;;;;;;;4.38;1.73;;;27.00;53.70;;;;;;4116308;28;20121;-59
2022/11/15 07:36:26;;;;;;;7.78;2.42;;;27.00;53.80;;;;;;4129596;28;20104;-58
2022/11/15 07:38:49;;;;;;;4.97;1.75;;;27.00;53.90;;;;;;4124872;28;20537;-58
2022/11/15 07:41:11;;;;;;;4.15;1.55;;;27.00;53.90;;;;;;4125412;28;20041;-59
2022/11/15 07:43:34;;;;;;;7.43;2.10;;;26.90;53.70;;;;;;4110999;28;20447;-58
2022/11/15 07:45:57;;;;;;;7.13;2.13;;;26.90;53.70;;;;;;4127023;28;20511;-58
2022/11/15 07:48:20;;;;;;;4.05;1.60;;;26.90;53.70;;;;;;4127791;28;20074;-58
2022/11/15 07:50:43;;;;;;;7.40;1.88;;;26.90;53.70;;;;;;4125368;28;20494;-57
2022/11/15 07:53:06;;;;;;;6.72;2.22;;;26.80;53.70;;;;;;4122462;28;20057;-59
2022/11/15 07:55:29;;;;;;;8.25;2.17;;;26.80;53.70;;;;;;4122058;28;20116;-58
2022/11/15 07:57:52;;;;;;;5.95;1.85;;;26.80;53.80;;;;;;4128509;28;20041;-57
2022/11/15 08:00:15;;;;;;;4.47;1.60;;;26.70;53.70;;;;;;4127078;28;20185;-59
2022/11/15 08:02:37;;;;;;;4.47;1.63;;;26.70;53.80;;;;;;4131142;28;20042;-57
2022/11/15 08:05:00;;;;;;;3.80;1.50;;;26.70;53.70;;;;;;4132253;28;20520;-58
2022/11/15 08:07:23;;;;;;;3.45;1.27;;;26.70;53.80;;;;;;4132208;28;20056;-57
2022/11/15 08:09:45;;;;;;;5.10;1.80;;;26.60;53.80;;;;;;4129628;28;21022;-58
2022/11/15 08:12:34;;;;;;;3.78;1.50;;;26.60;53.80;;;;;;4137016;28;20066;-58
2022/11/15 08:15:36;;;;;;;5.20;1.70;;;26.60;53.90;;;;;;4145224;28;20048;-58
2022/11/15 08:21:20;;;;;;;4.00;1.40;;;26.50;54.00;;;;;;4133082;28;20116;-59
2022/11/15 08:23:42;;;;;;;4.50;1.92;;;26.50;54.00;;;;;;4132235;28;20045;-59
2022/11/15 08:26:05;;;;;;;5.35;1.55;;;26.50;54.00;;;;;;4130757;28;20112;-58
2022/11/15 08:28:28;;;;;;;4.55;1.80;;;26.40;54.00;;;;;;4132023;28;20133;-59
2022/11/15 08:30:50;;;;;;;4.93;2.22;;;26.40;54.00;;;;;;4127158;28;20848;-59
2022/11/15 08:33:14;;;;;;;2.55;1.27;;;26.40;54.10;;;;;;4129886;28;20045;-59
2022/11/15 08:35:37;;;;;;;9.35;1.92;;;26.30;54.00;;;;;;4132374;28;20447;-59
2022/11/15 08:37:59;;;;;;;3.90;1.30;;;26.30;54.40;;;;;;4127155;28;20316;-58
2022/11/15 08:40:22;;;;;;;3.83;1.42;;;26.20;54.30;;;;;;4132767;28;20216;-58
2022/11/15 08:42:47;;;;;;;3.00;1.40;;;26.30;54.50;;;;;;4132284;28;20042;-58
2022/11/15 08:45:10;;;;;;;3.50;1.50;;;26.20;54.40;;;;;;4132771;28;20522;-58
2022/11/15 08:47:33;;;;;;;3.45;1.70;;;26.20;54.70;;;;;;4128781;28;20498;-58
2022/11/15 08:49:55;;;;;;;3.55;1.33;;;26.20;54.70;;;;;;4130626;28;20206;-58
2022/11/15 08:52:18;;;;;;;2.80;1.20;;;26.10;54.70;;;;;;4117003;28;20126;-58
2022/11/15 08:54:41;;;;;;;3.83;1.40;;;26.10;54.80;;;;;;4129874;28;20117;-57
2022/11/15 08:57:03;;;;;;;3.00;1.70;;;26.10;54.80;;;;;;4132963;28;20033;-58
2022/11/15 08:59:26;;;;;;;4.10;1.80;;;26.10;54.90;;;;;;4129045;28;20457;-58
2022/11/15 09:01:48;;;;;;;4.93;1.60;;;26.10;54.90;;;;;;4131827;28;20294;-58
2022/11/15 09:04:11;;;;;;;4.15;1.42;;;26.10;54.90;;;;;;4133863;28;20052;-59
2022/11/15 09:06:33;;;;;;;4.47;1.50;;;26.00;55.00;;;;;;4133236;28;20219;-59
2022/11/15 09:08:56;;;;;;;4.20;1.38;;;26.00;55.00;;;;;;4132925;28;20137;-59
2022/11/15 09:11:21;;;;;;;3.97;1.50;;;26.00;55.10;;;;;;4133459;28;20053;-59
2022/11/15 09:13:44;;;;;;;4.15;1.40;;;25.90;55.00;;;;;;4132549;28;20037;-57
2022/11/15 09:16:07;;;;;;;3.10;1.33;;;25.90;55.20;;;;;;4133676;28;20132;-57
2022/11/15 09:18:29;;;;;;;4.65;1.45;;;25.90;55.20;;;;;;4134664;28;20538;-56
2022/11/15 09:20:55;;;;;;;3.50;1.58;;;25.90;55.30;;;;;;4128703;28;20041;-57
2022/11/15 09:23:17;;;;;;;4.90;1.60;;;25.90;55.30;;;;;;4134161;28;20040;-57
2022/11/15 09:25:40;;;;;;;3.65;1.20;;;25.80;55.30;;;;;;4128231;28;20141;-57
2022/11/15 09:28:07;;;;;;;4.25;1.23;;;25.80;55.40;;;;;;4134798;28;20053;-58
2022/11/15 09:30:30;;;;;;;4.03;1.50;;;25.80;55.30;;;;;;4126981;28;20041;-57
2022/11/15 09:32:52;;;;;;;3.08;1.30;;;25.80;55.40;;;;;;4134986;28;20046;-57
2022/11/15 09:35:15;;;;;;;3.50;1.40;;;25.70;55.40;;;;;;4132808;28;20092;-57
2022/11/15 09:37:37;;;;;;;3.42;1.20;;;25.70;55.40;;;;;;4133965;28;20116;-58
2022/11/15 09:40:00;;;;;;;3.47;1.30;;;25.70;55.40;;;;;;4130744;28;20498;-57
2022/11/15 09:42:29;;;;;;;3.05;1.17;;;25.70;55.50;;;;;;4132589;28;20050;-59
2022/11/15 09:45:04;;;;;;;3.60;1.30;;;25.70;55.40;;;;;;4132180;28;20164;-56
2022/11/15 09:47:38;;;;;;;3.63;1.35;;;25.70;55.50;;;;;;4132350;28;20430;-58
2022/11/15 09:50:09;;;;;;;3.88;1.40;;;25.70;55.60;;;;;;4131042;28;20485;-58
2022/11/15 09:52:31;;;;;;;3.75;1.42;;;25.60;55.40;;;;;;4131590;28;20034;-59
2022/11/15 09:54:54;;;;;;;3.55;1.30;;;25.60;55.70;;;;;;4133286;28;20413;-60
2022/11/15 09:57:23;;;;;;;3.83;1.40;;;25.60;55.60;;;;;;4129930;28;20427;-56
2022/11/15 10:00:03;;;;;;;3.58;1.40;;;25.60;55.70;;;;;;4125441;28;20038;-57
2022/11/15 10:03:03;;;;;;;4.03;1.70;;;25.60;55.60;;;;;;4133197;28;20040;-59
2022/11/15 10:05:28;;;;;;;3.30;1.30;;;25.50;55.80;;;;;;4130668;28;20056;-58
2022/11/15 10:08:04;;;;;;;3.67;1.70;;;25.50;55.80;;;;;;4128627;28;20193;-58
2022/11/15 10:10:45;;;;;;;3.55;1.38;;;25.50;55.80;;;;;;4126267;28;20111;-58
2022/11/15 10:13:19;;;;;;;4.75;1.58;;;25.50;55.80;;;;;;4130032;28;20046;-57
2022/11/15 10:15:45;;;;;;;10.05;1.70;;;25.40;55.50;;;;;;4125933;28;20034;-58
2022/11/15 10:18:17;;;;;;;3.40;1.30;;;25.50;55.70;;;;;;4125828;28;20050;-57
2022/11/15 10:20:54;;;;;;;3.53;1.30;;;25.50;55.80;;;;;;4120989;28;20235;-54
2022/11/15 10:23:21;;;;;;;4.97;1.60;;;25.50;55.90;;;;;;4124911;28;20391;-56
2022/11/15 10:25:47;;;;;;;5.40;1.30;;;25.50;56.10;;;;;;4126081;28;20109;-53
2022/11/15 10:28:29;;;;;;;4.55;1.50;;;25.50;56.10;;;;;;4123389;28;20343;-56
2022/11/15 10:30:54;;;;;;;2.20;1.08;;;25.50;56.10;;;;;;4128565;28;20065;-58
2022/11/15 10:33:33;;;;;;;4.32;1.40;;;25.50;56.20;;;;;;4128740;28;20041;-62
2022/11/15 10:36:26;;;;;;;7.13;1.65;;;25.50;56.50;;;;;;4129856;28;20034;-56
2022/11/15 10:38:51;;;;;;;4.35;1.20;;;25.50;56.50;;;;;;4130461;28;20553;-57
2022/11/15 10:41:14;;;;;;;6.70;1.17;;;25.50;56.80;;;;;;4126022;28;20092;-54
2022/11/15 10:43:36;;;;;;;6.20;1.33;;;25.50;56.80;;;;;;4112314;28;20395;-59
2022/11/15 10:46:21;;;;;;;8.85;1.75;;;25.50;56.80;;;;;;4117894;28;20518;-51
2022/11/15 10:48:45;;;;;;;12.48;1.85;;;25.50;57.00;;;;;;4121827;28;20038;-58
2022/11/15 10:51:22;;;;;;;6.90;1.67;;;25.50;57.20;;;;;;4128861;28;20030;-57
2022/11/15 10:53:46;;;;;;;4.97;1.50;;;25.60;56.90;;;;;;4131750;28;20056;-59
2022/11/15 10:56:15;;;;;;;2.83;1.42;;;25.60;56.30;;;;;;4129504;28;20177;-59
2022/11/15 10:58:53;;;;;;;6.20;1.80;;;25.50;55.90;;;;;;4130210;28;20061;-58
2022/11/15 11:01:19;;;;;;;3.80;1.45;;;25.50;56.10;;;;;;4113809;28;20117;-56
2022/11/15 11:03:43;;;;;;;9.30;1.40;;;25.50;56.20;;;;;;4124817;28;20048;-59
2022/11/15 11:06:17;;;;;;;6.63;1.45;;;25.50;56.60;;;;;;4123406;28;20052;-59
2022/11/15 11:08:40;;;;;;;6.30;1.83;;;25.40;56.80;;;;;;4130207;28;20049;-55
2022/11/15 11:11:05;;;;;;;6.60;1.60;;;25.40;57.00;;;;;;4122589;28;20033;-60
2022/11/15 11:13:34;;;;;;;10.55;1.88;;;25.50;57.50;;;;;;4124036;28;20042;-59
2022/11/15 11:16:00;;;;;;;6.55;1.38;;;25.40;57.10;;;;;;4126927;28;20410;-57
2022/11/15 11:18:34;;;;;;;4.88;1.23;;;25.40;57.00;;;;;;4126905;28;20085;-58
2022/11/15 11:21:01;;;;;;;2.90;1.20;;;25.40;57.00;;;;;;4126161;28;20105;-59
2022/11/15 11:23:52;;;;;;;3.63;1.27;;;25.40;57.00;;;;;;4128479;28;20408;-59
2022/11/15 11:26:36;;;;;;;2.10;0.90;;;25.40;57.00;;;;;;4126115;28;20057;-57
2022/11/15 11:29:06;;;;;;;8.50;1.37;;;25.40;57.00;;;;;;4127929;28;20513;-58
2022/11/15 11:31:43;;;;;;;5.90;1.35;;;25.40;57.10;;;;;;4126787;28;20050;-56
2022/11/15 11:34:18;;;;;;;5.00;1.55;;;25.40;57.10;;;;;;4131003;28;20509;-58
2022/11/15 11:36:54;;;;;;;1.50;0.70;;;25.40;57.20;;;;;;4122922;28;20969;-55
2022/11/15 11:39:51;;;;;;;3.83;1.00;;;25.40;57.20;;;;;;4128155;28;20344;-57
2022/11/15 11:42:19;;;;;;;6.18;1.10;;;25.40;57.00;;;;;;4127597;28;20046;-55
2022/11/15 11:45:02;;;;;;;6.00;1.30;;;25.30;56.90;;;;;;4128089;28;20030;-57
2022/11/15 11:47:37;;;;;;;4.13;0.80;;;25.30;56.80;;;;;;4128417;28;20120;-55
2022/11/15 11:50:15;;;;;;;3.25;0.80;;;25.30;56.70;;;;;;4130185;28;20500;-55
2022/11/15 11:53:01;;;;;;;3.78;1.30;;;25.30;56.70;;;;;;4127792;28;20089;-57
2022/11/15 11:55:48;;;;;;;2.60;0.88;;;25.30;56.50;;;;;;4129842;28;20030;-51
2022/11/15 11:58:40;;;;;;;2.33;0.60;;;25.20;56.50;;;;;;4124984;28;20042;-58
2022/11/15 12:01:26;;;;;;;3.95;0.85;;;25.20;56.40;;;;;;4126579;28;20471;-56
2022/11/15 12:04:11;;;;;;;3.05;0.80;;;25.20;56.00;;;;;;4125875;28;20113;-55
2022/11/15 12:06:53;;;;;;;2.38;0.88;;;25.20;56.20;;;;;;4123018;28;20053;-58
2022/11/15 12:09:31;;;;;;;3.28;1.05;;;25.20;56.20;;;;;;4112884;28;20137;-54
2022/11/15 12:12:23;;;;;;;4.13;1.08;;;25.20;56.20;;;;;;4121755;28;20040;-54
2022/11/15 12:14:56;;;;;;;9.30;0.68;;;25.20;56.10;;;;;;4118370;28;20093;-57
2022/11/15 12:17:26;;;;;;;1.67;0.70;;;25.20;56.00;;;;;;4132606;28;20092;-60
2022/11/15 12:19:49;;;;;;;5.20;1.10;;;25.20;55.60;;;;;;4128995;28;20069;-59
2022/11/15 12:22:14;;;;;;;5.68;1.08;;;25.20;55.80;;;;;;4130202;28;20038;-59
2022/11/15 12:24:52;;;;;;;4.22;1.00;;;25.20;55.20;;;;;;4132677;28;20449;-59
2022/11/15 12:27:26;;;;;;;3.78;0.90;;;25.10;54.70;;;;;;4130178;28;20416;-60
2022/11/15 12:29:59;;;;;;;2.33;0.65;;;25.10;54.40;;;;;;4128081;28;20038;-59
2022/11/15 12:32:40;;;;;;;1.23;0.55;;;25.00;54.20;;;;;;4131207;28;20160;-60
2022/11/15 12:35:20;;;;;;;1.83;0.90;;;25.00;54.00;;;;;;4130834;28;20420;-60
2022/11/15 12:37:42;;;;;;;2.35;0.85;;;25.00;53.90;;;;;;4131737;28;20124;-57
2022/11/15 12:40:18;;;;;;;2.35;0.65;;;24.90;53.80;;;;;;4132571;28;20206;-59
2022/11/15 12:43:16;;;;;;;1.95;0.60;;;24.90;53.50;;;;;;4132279;28;20153;-59
2022/11/15 12:45:40;;;;;;;2.53;0.77;;;24.90;53.40;;;;;;4130826;28;20040;-59
2022/11/15 12:48:18;;;;;;;1.45;0.50;;;24.90;53.30;;;;;;4133280;28;20410;-58
2022/11/15 12:50:53;;;;;;;0.82;0.43;;;24.80;53.10;;;;;;4131873;28;20057;-61
2022/11/15 12:53:25;;;;;;;1.00;0.65;;;24.80;53.30;;;;;;4137859;28;20048;-64
2022/11/15 12:56:14;;;;;;;1.55;0.40;;;24.80;53.00;;;;;;4136657;28;20117;-62
2022/11/15 12:58:46;;;;;;;1.80;0.73;;;24.80;53.10;;;;;;4135111;28;20573;-60
2022/11/15 13:01:37;;;;;;;2.33;0.70;;;24.80;52.90;;;;;;4135680;28;20049;-60
2022/11/15 13:04:26;;;;;;;4.85;0.80;;;24.70;53.00;;;;;;4133700;28;20046;-55
2022/11/15 13:06:54;;;;;;;2.10;0.63;;;24.70;52.80;;;;;;4130293;28;20076;-60
2022/11/15 13:09:35;;;;;;;1.55;0.75;;;24.70;52.50;;;;;;4124863;28;20548;-60